sensor_id;sensor_type;location;lat;lon;timestamp;P1;durP1;ratioP1;P2;durP2;ratioP2
8139;SDS011;4111;50.972;7.072;2022-12-17T00:00:58;61.90;;;21.10;;
8139;SDS011;4111;50.972;7.072;2022-12-17T00:03:43;65.80;;;21.27;;
8139;SDS011;4111;50.972;7.072;2022-12-17T00:06:29;60.40;;;20.23;;
8139;SDS011;4111;50.972;7.072;2022-12-17T00:09:15;79.30;;;21.97;;
8139;SDS011;4111;50.972;7.072;2022-12-17T00:12:00;61.00;;;21.63;;
8139;SDS011;4111;50.972;7.072;2022-12-17T00:14:45;69.23;;;21.27;;
8139;SDS011;4111;50.972;7.072;2022-12-17T00:17:30;73.27;;;22.57;;
8139;SDS011;4111;50.972;7.072;2022-12-17T00:20:15;61.90;;;20.70;;
8139;SDS011;4111;50.972;7.072;2022-12-17T00:23:00;56.37;;;21.63;;
8139;SDS011;4111;50.972;7.072;2022-12-17T00:25:50;62.23;;;20.20;;
8139;SDS011;4111;50.972;7.072;2022-12-17T00:28:36;67.17;;;19.83;;
8139;SDS011;4111;50.972;7.072;2022-12-17T00:31:22;70.90;;;19.90;;
8139;SDS011;4111;50.972;7.072;2022-12-17T00:34:07;58.27;;;20.17;;
8139;SDS011;4111;50.972;7.072;2022-12-17T00:36:52;66.60;;;20.93;;
8139;SDS011;4111;50.972;7.072;2022-12-17T00:39:37;56.63;;;19.53;;
8139;SDS011;4111;50.972;7.072;2022-12-17T00:42:24;59.40;;;20.43;;
8139;SDS011;4111;50.972;7.072;2022-12-17T00:45:09;60.93;;;20.53;;
8139;SDS011;4111;50.972;7.072;2022-12-17T00:47:54;55.60;;;20.87;;
8139;SDS011;4111;50.972;7.072;2022-12-17T00:50:39;60.00;;;20.63;;
8139;SDS011;4111;50.972;7.072;2022-12-17T00:53:24;66.23;;;22.07;;
8139;SDS011;4111;50.972;7.072;2022-12-17T00:56:09;65.17;;;21.17;;
8139;SDS011;4111;50.972;7.072;2022-12-17T00:58:54;59.73;;;22.13;;
8139;SDS011;4111;50.972;7.072;2022-12-17T01:01:39;69.13;;;23.27;;
8139;SDS011;4111;50.972;7.072;2022-12-17T01:04:24;60.03;;;21.37;;
8139;SDS011;4111;50.972;7.072;2022-12-17T01:07:09;58.87;;;21.90;;
8139;SDS011;4111;50.972;7.072;2022-12-17T01:09:54;54.57;;;20.50;;
8139;SDS011;4111;50.972;7.072;2022-12-17T01:12:39;61.80;;;22.27;;
8139;SDS011;4111;50.972;7.072;2022-12-17T01:15:24;58.87;;;20.57;;
8139;SDS011;4111;50.972;7.072;2022-12-17T01:18:15;61.17;;;20.23;;
8139;SDS011;4111;50.972;7.072;2022-12-17T01:21:02;53.50;;;21.40;;
8139;SDS011;4111;50.972;7.072;2022-12-17T01:23:52;63.13;;;23.17;;
8139;SDS011;4111;50.972;7.072;2022-12-17T01:26:36;63.93;;;22.40;;
8139;SDS011;4111;50.972;7.072;2022-12-17T01:29:21;56.03;;;22.13;;
8139;SDS011;4111;50.972;7.072;2022-12-17T01:32:06;63.50;;;21.70;;
8139;SDS011;4111;50.972;7.072;2022-12-17T01:34:51;62.50;;;22.97;;
8139;SDS011;4111;50.972;7.072;2022-12-17T01:37:36;66.40;;;22.87;;
8139;SDS011;4111;50.972;7.072;2022-12-17T01:40:21;61.37;;;24.27;;
8139;SDS011;4111;50.972;7.072;2022-12-17T01:43:09;56.13;;;22.43;;
8139;SDS011;4111;50.972;7.072;2022-12-17T01:45:55;51.20;;;22.20;;
8139;SDS011;4111;50.972;7.072;2022-12-17T01:48:42;60.87;;;22.63;;
8139;SDS011;4111;50.972;7.072;2022-12-17T01:51:29;57.97;;;23.33;;
8139;SDS011;4111;50.972;7.072;2022-12-17T01:54:26;62.40;;;22.37;;
8139;SDS011;4111;50.972;7.072;2022-12-17T01:57:11;61.33;;;22.10;;
8139;SDS011;4111;50.972;7.072;2022-12-17T02:00:00;48.23;;;21.20;;
8139;SDS011;4111;50.972;7.072;2022-12-17T02:02:50;49.83;;;21.10;;
8139;SDS011;4111;50.972;7.072;2022-12-17T02:05:39;58.43;;;22.07;;
8139;SDS011;4111;50.972;7.072;2022-12-17T02:15:27;58.73;;;23.23;;
8139;SDS011;4111;50.972;7.072;2022-12-17T02:18:07;56.03;;;23.03;;
8139;SDS011;4111;50.972;7.072;2022-12-17T02:20:57;60.90;;;24.00;;
8139;SDS011;4111;50.972;7.072;2022-12-17T02:26:47;55.80;;;22.23;;
8139;SDS011;4111;50.972;7.072;2022-12-17T02:29:38;51.53;;;22.27;;
8139;SDS011;4111;50.972;7.072;2022-12-17T02:32:27;49.47;;;21.80;;
8139;SDS011;4111;50.972;7.072;2022-12-17T02:35:15;48.40;;;22.17;;
8139;SDS011;4111;50.972;7.072;2022-12-17T02:38:14;45.03;;;21.10;;
8139;SDS011;4111;50.972;7.072;2022-12-17T02:41:00;53.13;;;22.70;;
8139;SDS011;4111;50.972;7.072;2022-12-17T02:43:48;51.73;;;22.23;;
8139;SDS011;4111;50.972;7.072;2022-12-17T02:46:33;50.33;;;20.53;;
8139;SDS011;4111;50.972;7.072;2022-12-17T02:49:18;48.00;;;22.10;;
8139;SDS011;4111;50.972;7.072;2022-12-17T02:52:03;43.97;;;21.33;;
8139;SDS011;4111;50.972;7.072;2022-12-17T02:54:49;47.50;;;19.67;;
8139;SDS011;4111;50.972;7.072;2022-12-17T02:57:34;52.67;;;22.93;;
8139;SDS011;4111;50.972;7.072;2022-12-17T03:00:20;49.13;;;21.43;;
8139;SDS011;4111;50.972;7.072;2022-12-17T03:03:05;46.33;;;21.03;;
8139;SDS011;4111;50.972;7.072;2022-12-17T03:05:50;44.87;;;20.87;;
8139;SDS011;4111;50.972;7.072;2022-12-17T03:08:35;46.87;;;20.13;;
8139;SDS011;4111;50.972;7.072;2022-12-17T03:11:20;47.57;;;19.87;;
8139;SDS011;4111;50.972;7.072;2022-12-17T03:14:05;42.63;;;20.80;;
8139;SDS011;4111;50.972;7.072;2022-12-17T03:16:50;46.03;;;20.70;;
8139;SDS011;4111;50.972;7.072;2022-12-17T03:19:38;46.43;;;19.30;;
8139;SDS011;4111;50.972;7.072;2022-12-17T03:22:23;50.00;;;20.73;;
8139;SDS011;4111;50.972;7.072;2022-12-17T03:25:08;48.50;;;20.73;;
8139;SDS011;4111;50.972;7.072;2022-12-17T03:27:53;49.47;;;20.37;;
8139;SDS011;4111;50.972;7.072;2022-12-17T03:30:38;47.53;;;20.97;;
8139;SDS011;4111;50.972;7.072;2022-12-17T03:33:23;45.43;;;20.00;;
8139;SDS011;4111;50.972;7.072;2022-12-17T03:36:08;47.87;;;20.13;;
8139;SDS011;4111;50.972;7.072;2022-12-17T03:38:53;46.83;;;19.87;;
8139;SDS011;4111;50.972;7.072;2022-12-17T03:41:38;38.33;;;19.10;;
8139;SDS011;4111;50.972;7.072;2022-12-17T03:44:22;45.30;;;19.70;;
8139;SDS011;4111;50.972;7.072;2022-12-17T03:47:07;43.87;;;18.10;;
8139;SDS011;4111;50.972;7.072;2022-12-17T03:49:52;42.53;;;18.77;;
8139;SDS011;4111;50.972;7.072;2022-12-17T03:52:37;42.33;;;18.60;;
8139;SDS011;4111;50.972;7.072;2022-12-17T03:55:22;38.33;;;18.03;;
8139;SDS011;4111;50.972;7.072;2022-12-17T03:58:07;42.93;;;17.83;;
8139;SDS011;4111;50.972;7.072;2022-12-17T04:00:52;47.87;;;19.47;;
8139;SDS011;4111;50.972;7.072;2022-12-17T04:03:37;42.27;;;17.87;;
8139;SDS011;4111;50.972;7.072;2022-12-17T04:06:22;43.30;;;16.97;;
8139;SDS011;4111;50.972;7.072;2022-12-17T04:09:07;40.07;;;17.57;;
8139;SDS011;4111;50.972;7.072;2022-12-17T04:11:52;33.03;;;16.50;;
8139;SDS011;4111;50.972;7.072;2022-12-17T04:14:37;35.93;;;17.20;;
8139;SDS011;4111;50.972;7.072;2022-12-17T04:17:22;37.30;;;16.40;;
8139;SDS011;4111;50.972;7.072;2022-12-17T04:20:07;32.80;;;16.20;;
8139;SDS011;4111;50.972;7.072;2022-12-17T04:22:52;33.60;;;17.17;;
8139;SDS011;4111;50.972;7.072;2022-12-17T04:25:37;36.10;;;16.30;;
8139;SDS011;4111;50.972;7.072;2022-12-17T04:28:22;34.60;;;15.77;;
8139;SDS011;4111;50.972;7.072;2022-12-17T04:31:07;33.57;;;15.47;;
8139;SDS011;4111;50.972;7.072;2022-12-17T04:33:52;41.80;;;16.23;;
8139;SDS011;4111;50.972;7.072;2022-12-17T04:36:37;30.87;;;16.10;;
8139;SDS011;4111;50.972;7.072;2022-12-17T04:39:23;34.50;;;15.97;;
8139;SDS011;4111;50.972;7.072;2022-12-17T04:42:08;40.80;;;16.57;;
8139;SDS011;4111;50.972;7.072;2022-12-17T04:44:53;29.20;;;15.67;;
8139;SDS011;4111;50.972;7.072;2022-12-17T04:47:38;37.00;;;16.57;;
8139;SDS011;4111;50.972;7.072;2022-12-17T04:50:23;33.67;;;15.47;;
8139;SDS011;4111;50.972;7.072;2022-12-17T04:53:08;33.30;;;15.87;;
8139;SDS011;4111;50.972;7.072;2022-12-17T04:55:54;31.33;;;14.93;;
8139;SDS011;4111;50.972;7.072;2022-12-17T04:58:39;32.40;;;15.33;;
8139;SDS011;4111;50.972;7.072;2022-12-17T05:01:25;34.80;;;16.07;;
8139;SDS011;4111;50.972;7.072;2022-12-17T05:04:10;33.03;;;15.90;;
8139;SDS011;4111;50.972;7.072;2022-12-17T05:06:55;35.37;;;16.77;;
8139;SDS011;4111;50.972;7.072;2022-12-17T05:09:39;32.97;;;15.77;;
8139;SDS011;4111;50.972;7.072;2022-12-17T05:12:24;28.43;;;15.97;;
8139;SDS011;4111;50.972;7.072;2022-12-17T05:15:09;31.47;;;14.23;;
8139;SDS011;4111;50.972;7.072;2022-12-17T05:18:02;32.30;;;16.17;;
8139;SDS011;4111;50.972;7.072;2022-12-17T05:20:48;33.23;;;15.50;;
8139;SDS011;4111;50.972;7.072;2022-12-17T05:23:33;34.47;;;15.47;;
8139;SDS011;4111;50.972;7.072;2022-12-17T05:26:21;36.60;;;16.13;;
8139;SDS011;4111;50.972;7.072;2022-12-17T05:29:08;31.00;;;16.00;;
8139;SDS011;4111;50.972;7.072;2022-12-17T05:31:55;30.53;;;14.80;;
8139;SDS011;4111;50.972;7.072;2022-12-17T05:34:40;32.53;;;14.97;;
8139;SDS011;4111;50.972;7.072;2022-12-17T05:37:25;26.23;;;13.70;;
8139;SDS011;4111;50.972;7.072;2022-12-17T05:40:10;29.03;;;15.20;;
8139;SDS011;4111;50.972;7.072;2022-12-17T05:43:00;33.53;;;15.77;;
8139;SDS011;4111;50.972;7.072;2022-12-17T05:45:47;32.20;;;15.50;;
8139;SDS011;4111;50.972;7.072;2022-12-17T05:48:33;31.83;;;15.87;;
8139;SDS011;4111;50.972;7.072;2022-12-17T05:51:19;37.00;;;15.97;;
8139;SDS011;4111;50.972;7.072;2022-12-17T05:54:05;34.73;;;17.20;;
8139;SDS011;4111;50.972;7.072;2022-12-17T05:56:50;35.40;;;18.43;;
8139;SDS011;4111;50.972;7.072;2022-12-17T05:59:35;34.93;;;16.40;;
8139;SDS011;4111;50.972;7.072;2022-12-17T06:02:20;36.37;;;16.97;;
8139;SDS011;4111;50.972;7.072;2022-12-17T06:05:06;38.70;;;18.43;;
8139;SDS011;4111;50.972;7.072;2022-12-17T06:07:51;33.60;;;17.37;;
8139;SDS011;4111;50.972;7.072;2022-12-17T06:10:36;35.50;;;16.70;;
8139;SDS011;4111;50.972;7.072;2022-12-17T06:13:21;32.50;;;17.03;;
8139;SDS011;4111;50.972;7.072;2022-12-17T06:16:06;29.43;;;16.23;;
8139;SDS011;4111;50.972;7.072;2022-12-17T06:18:51;29.33;;;15.33;;
8139;SDS011;4111;50.972;7.072;2022-12-17T06:21:36;35.50;;;15.77;;
8139;SDS011;4111;50.972;7.072;2022-12-17T06:24:21;30.87;;;15.57;;
8139;SDS011;4111;50.972;7.072;2022-12-17T06:27:11;28.43;;;15.20;;
8139;SDS011;4111;50.972;7.072;2022-12-17T06:29:56;35.50;;;15.20;;
8139;SDS011;4111;50.972;7.072;2022-12-17T06:32:44;35.50;;;15.60;;
8139;SDS011;4111;50.972;7.072;2022-12-17T06:35:29;28.23;;;14.63;;
8139;SDS011;4111;50.972;7.072;2022-12-17T06:38:14;31.10;;;16.23;;
8139;SDS011;4111;50.972;7.072;2022-12-17T06:40:59;26.90;;;14.07;;
8139;SDS011;4111;50.972;7.072;2022-12-17T06:43:45;38.20;;;15.93;;
8139;SDS011;4111;50.972;7.072;2022-12-17T06:46:30;28.07;;;14.43;;
8139;SDS011;4111;50.972;7.072;2022-12-17T06:49:15;30.07;;;14.77;;
8139;SDS011;4111;50.972;7.072;2022-12-17T06:52:00;28.70;;;15.07;;
8139;SDS011;4111;50.972;7.072;2022-12-17T06:54:45;26.63;;;13.27;;
8139;SDS011;4111;50.972;7.072;2022-12-17T06:57:30;27.20;;;14.40;;
8139;SDS011;4111;50.972;7.072;2022-12-17T07:00:15;26.93;;;14.27;;
8139;SDS011;4111;50.972;7.072;2022-12-17T07:03:04;30.07;;;14.13;;
8139;SDS011;4111;50.972;7.072;2022-12-17T07:05:49;23.83;;;14.07;;
8139;SDS011;4111;50.972;7.072;2022-12-17T07:08:34;27.87;;;13.67;;
8139;SDS011;4111;50.972;7.072;2022-12-17T07:11:19;27.37;;;13.43;;
8139;SDS011;4111;50.972;7.072;2022-12-17T07:14:04;23.57;;;12.23;;
8139;SDS011;4111;50.972;7.072;2022-12-17T07:16:49;26.77;;;12.53;;
8139;SDS011;4111;50.972;7.072;2022-12-17T07:19:34;26.67;;;13.37;;
8139;SDS011;4111;50.972;7.072;2022-12-17T07:22:19;29.40;;;13.67;;
8139;SDS011;4111;50.972;7.072;2022-12-17T07:25:04;26.10;;;13.23;;
8139;SDS011;4111;50.972;7.072;2022-12-17T07:27:55;25.93;;;13.03;;
8139;SDS011;4111;50.972;7.072;2022-12-17T07:30:41;25.37;;;13.20;;
8139;SDS011;4111;50.972;7.072;2022-12-17T07:33:26;29.17;;;15.85;;
8139;SDS011;4111;50.972;7.072;2022-12-17T07:36:11;23.00;;;13.07;;
8139;SDS011;4111;50.972;7.072;2022-12-17T07:38:55;29.40;;;12.67;;
8139;SDS011;4111;50.972;7.072;2022-12-17T07:41:40;27.43;;;14.07;;
8139;SDS011;4111;50.972;7.072;2022-12-17T07:44:25;25.13;;;13.33;;
8139;SDS011;4111;50.972;7.072;2022-12-17T07:47:10;26.80;;;14.47;;
8139;SDS011;4111;50.972;7.072;2022-12-17T07:49:55;30.73;;;13.60;;
8139;SDS011;4111;50.972;7.072;2022-12-17T07:52:39;24.00;;;13.33;;
8139;SDS011;4111;50.972;7.072;2022-12-17T07:55:24;23.50;;;13.30;;
8139;SDS011;4111;50.972;7.072;2022-12-17T07:58:10;21.87;;;12.17;;
8139;SDS011;4111;50.972;7.072;2022-12-17T08:00:58;22.83;;;12.03;;
8139;SDS011;4111;50.972;7.072;2022-12-17T08:03:44;26.37;;;12.43;;
8139;SDS011;4111;50.972;7.072;2022-12-17T08:06:29;28.33;;;13.53;;
8139;SDS011;4111;50.972;7.072;2022-12-17T08:09:14;23.10;;;10.67;;
8139;SDS011;4111;50.972;7.072;2022-12-17T08:11:59;19.33;;;10.60;;
8139;SDS011;4111;50.972;7.072;2022-12-17T08:14:43;20.53;;;11.13;;
8139;SDS011;4111;50.972;7.072;2022-12-17T08:17:28;19.27;;;10.43;;
8139;SDS011;4111;50.972;7.072;2022-12-17T08:20:13;23.07;;;11.87;;
8139;SDS011;4111;50.972;7.072;2022-12-17T08:23:01;29.10;;;11.97;;
8139;SDS011;4111;50.972;7.072;2022-12-17T08:25:47;17.07;;;10.10;;
8139;SDS011;4111;50.972;7.072;2022-12-17T08:28:32;17.23;;;10.27;;
8139;SDS011;4111;50.972;7.072;2022-12-17T08:31:17;23.83;;;11.27;;
8139;SDS011;4111;50.972;7.072;2022-12-17T08:34:03;18.20;;;10.30;;
8139;SDS011;4111;50.972;7.072;2022-12-17T08:36:48;26.73;;;12.00;;
8139;SDS011;4111;50.972;7.072;2022-12-17T08:39:33;19.10;;;10.03;;
8139;SDS011;4111;50.972;7.072;2022-12-17T08:42:18;23.03;;;12.07;;
8139;SDS011;4111;50.972;7.072;2022-12-17T08:45:03;25.33;;;11.80;;
8139;SDS011;4111;50.972;7.072;2022-12-17T08:47:48;26.03;;;13.37;;
8139;SDS011;4111;50.972;7.072;2022-12-17T08:50:33;23.77;;;13.50;;
8139;SDS011;4111;50.972;7.072;2022-12-17T08:53:18;26.53;;;13.00;;
8139;SDS011;4111;50.972;7.072;2022-12-17T08:56:03;23.33;;;11.73;;
8139;SDS011;4111;50.972;7.072;2022-12-17T08:58:49;20.93;;;12.37;;
8139;SDS011;4111;50.972;7.072;2022-12-17T09:01:33;23.13;;;12.43;;
8139;SDS011;4111;50.972;7.072;2022-12-17T09:04:18;25.90;;;13.00;;
8139;SDS011;4111;50.972;7.072;2022-12-17T09:07:03;21.17;;;12.07;;
8139;SDS011;4111;50.972;7.072;2022-12-17T09:09:48;22.23;;;12.07;;
8139;SDS011;4111;50.972;7.072;2022-12-17T09:12:32;25.80;;;12.50;;
8139;SDS011;4111;50.972;7.072;2022-12-17T09:15:17;21.30;;;11.70;;
8139;SDS011;4111;50.972;7.072;2022-12-17T09:18:02;20.87;;;11.73;;
8139;SDS011;4111;50.972;7.072;2022-12-17T09:20:54;18.20;;;11.90;;
8139;SDS011;4111;50.972;7.072;2022-12-17T09:23:39;19.33;;;11.57;;
8139;SDS011;4111;50.972;7.072;2022-12-17T09:26:25;19.43;;;12.30;;
8139;SDS011;4111;50.972;7.072;2022-12-17T09:29:10;22.23;;;12.10;;
8139;SDS011;4111;50.972;7.072;2022-12-17T09:31:54;18.37;;;11.20;;
8139;SDS011;4111;50.972;7.072;2022-12-17T09:34:39;21.97;;;11.50;;
8139;SDS011;4111;50.972;7.072;2022-12-17T09:37:24;20.97;;;12.07;;
8139;SDS011;4111;50.972;7.072;2022-12-17T09:40:13;22.80;;;13.03;;
8139;SDS011;4111;50.972;7.072;2022-12-17T09:43:04;18.67;;;11.63;;
8139;SDS011;4111;50.972;7.072;2022-12-17T09:46:04;18.77;;;12.20;;
8139;SDS011;4111;50.972;7.072;2022-12-17T09:49:01;20.63;;;12.13;;
8139;SDS011;4111;50.972;7.072;2022-12-17T09:51:52;17.20;;;10.80;;
8139;SDS011;4111;50.972;7.072;2022-12-17T09:54:45;18.83;;;11.17;;
8139;SDS011;4111;50.972;7.072;2022-12-17T09:57:34;16.57;;;10.93;;
8139;SDS011;4111;50.972;7.072;2022-12-17T10:00:22;18.17;;;11.00;;
8139;SDS011;4111;50.972;7.072;2022-12-17T10:03:10;19.47;;;11.40;;
8139;SDS011;4111;50.972;7.072;2022-12-17T10:05:58;17.10;;;10.43;;
8139;SDS011;4111;50.972;7.072;2022-12-17T10:08:51;19.53;;;10.63;;
8139;SDS011;4111;50.972;7.072;2022-12-17T10:11:39;18.20;;;10.60;;
8139;SDS011;4111;50.972;7.072;2022-12-17T10:14:25;18.67;;;11.73;;
8139;SDS011;4111;50.972;7.072;2022-12-17T10:17:17;17.70;;;11.27;;
8139;SDS011;4111;50.972;7.072;2022-12-17T10:20:13;17.00;;;10.37;;
8139;SDS011;4111;50.972;7.072;2022-12-17T10:23:04;20.30;;;11.47;;
8139;SDS011;4111;50.972;7.072;2022-12-17T10:25:53;19.20;;;10.77;;
8139;SDS011;4111;50.972;7.072;2022-12-17T10:28:39;18.70;;;11.40;;
8139;SDS011;4111;50.972;7.072;2022-12-17T10:31:26;16.67;;;10.63;;
8139;SDS011;4111;50.972;7.072;2022-12-17T10:34:14;17.23;;;11.13;;
8139;SDS011;4111;50.972;7.072;2022-12-17T10:37:02;17.10;;;9.90;;
8139;SDS011;4111;50.972;7.072;2022-12-17T10:39:53;16.10;;;10.60;;
8139;SDS011;4111;50.972;7.072;2022-12-17T10:42:40;19.37;;;11.27;;
8139;SDS011;4111;50.972;7.072;2022-12-17T10:45:28;20.03;;;11.70;;
8139;SDS011;4111;50.972;7.072;2022-12-17T10:48:16;19.43;;;12.00;;
8139;SDS011;4111;50.972;7.072;2022-12-17T10:51:16;17.20;;;10.57;;
8139;SDS011;4111;50.972;7.072;2022-12-17T10:54:27;20.97;;;10.97;;
8139;SDS011;4111;50.972;7.072;2022-12-17T11:03:02;17.37;;;9.90;;
8139;SDS011;4111;50.972;7.072;2022-12-17T11:05:48;21.90;;;11.77;;
8139;SDS011;4111;50.972;7.072;2022-12-17T11:08:38;17.17;;;11.40;;
8139;SDS011;4111;50.972;7.072;2022-12-17T11:11:24;19.73;;;11.60;;
8139;SDS011;4111;50.972;7.072;2022-12-17T11:14:09;20.57;;;12.03;;
8139;SDS011;4111;50.972;7.072;2022-12-17T11:16:59;19.73;;;11.87;;
8139;SDS011;4111;50.972;7.072;2022-12-17T11:20:01;18.13;;;11.93;;
8139;SDS011;4111;50.972;7.072;2022-12-17T11:22:52;18.47;;;10.93;;
8139;SDS011;4111;50.972;7.072;2022-12-17T11:25:41;15.83;;;10.70;;
8139;SDS011;4111;50.972;7.072;2022-12-17T11:28:34;16.27;;;10.70;;
8139;SDS011;4111;50.972;7.072;2022-12-17T11:40:52;18.07;;;10.97;;
8139;SDS011;4111;50.972;7.072;2022-12-17T11:43:48;19.40;;;11.90;;
8139;SDS011;4111;50.972;7.072;2022-12-17T11:47:11;19.93;;;11.57;;
8139;SDS011;4111;50.972;7.072;2022-12-17T11:53:16;16.97;;;11.40;;
8139;SDS011;4111;50.972;7.072;2022-12-17T11:56:10;18.23;;;12.03;;
8139;SDS011;4111;50.972;7.072;2022-12-17T12:02:32;18.57;;;12.37;;
8139;SDS011;4111;50.972;7.072;2022-12-17T12:05:41;20.40;;;12.00;;
8139;SDS011;4111;50.972;7.072;2022-12-17T12:08:34;18.13;;;11.33;;
8139;SDS011;4111;50.972;7.072;2022-12-17T12:14:28;19.93;;;11.73;;
8139;SDS011;4111;50.972;7.072;2022-12-17T12:26:52;22.30;;;12.93;;
8139;SDS011;4111;50.972;7.072;2022-12-17T12:32:59;16.97;;;12.03;;
8139;SDS011;4111;50.972;7.072;2022-12-17T12:35:57;19.00;;;11.50;;
8139;SDS011;4111;50.972;7.072;2022-12-17T12:38:50;19.03;;;12.60;;
8139;SDS011;4111;50.972;7.072;2022-12-17T12:45:24;16.77;;;11.73;;
8139;SDS011;4111;50.972;7.072;2022-12-17T12:48:29;19.30;;;13.30;;
8139;SDS011;4111;50.972;7.072;2022-12-17T12:51:23;17.93;;;11.63;;
8139;SDS011;4111;50.972;7.072;2022-12-17T12:54:25;19.50;;;12.07;;
8139;SDS011;4111;50.972;7.072;2022-12-17T12:57:25;20.37;;;12.50;;
8139;SDS011;4111;50.972;7.072;2022-12-17T13:00:25;18.80;;;12.03;;
8139;SDS011;4111;50.972;7.072;2022-12-17T13:03:30;20.00;;;12.80;;
8139;SDS011;4111;50.972;7.072;2022-12-17T13:09:50;17.73;;;12.03;;
8139;SDS011;4111;50.972;7.072;2022-12-17T13:14:27;17.80;;;12.33;;
8139;SDS011;4111;50.972;7.072;2022-12-17T13:16:58;16.47;;;12.27;;
8139;SDS011;4111;50.972;7.072;2022-12-17T13:21:56;17.90;;;12.23;;
8139;SDS011;4111;50.972;7.072;2022-12-17T13:24:53;20.33;;;12.97;;
8139;SDS011;4111;50.972;7.072;2022-12-17T13:30:14;21.03;;;12.87;;
8139;SDS011;4111;50.972;7.072;2022-12-17T13:35:41;20.20;;;13.10;;
8139;SDS011;4111;50.972;7.072;2022-12-17T13:38:19;20.07;;;12.20;;
8139;SDS011;4111;50.972;7.072;2022-12-17T13:43:41;17.97;;;12.13;;
8139;SDS011;4111;50.972;7.072;2022-12-17T13:46:23;17.70;;;12.13;;
8139;SDS011;4111;50.972;7.072;2022-12-17T13:49:02;19.07;;;12.57;;
8139;SDS011;4111;50.972;7.072;2022-12-17T13:51:32;18.73;;;13.07;;
8139;SDS011;4111;50.972;7.072;2022-12-17T13:54:01;17.43;;;12.30;;
8139;SDS011;4111;50.972;7.072;2022-12-17T13:56:33;17.07;;;12.43;;
8139;SDS011;4111;50.972;7.072;2022-12-17T13:59:01;20.23;;;12.97;;
8139;SDS011;4111;50.972;7.072;2022-12-17T14:01:42;22.57;;;14.47;;
8139;SDS011;4111;50.972;7.072;2022-12-17T14:04:18;17.27;;;11.67;;
8139;SDS011;4111;50.972;7.072;2022-12-17T14:06:46;18.40;;;12.63;;
8139;SDS011;4111;50.972;7.072;2022-12-17T14:09:17;18.50;;;13.03;;
8139;SDS011;4111;50.972;7.072;2022-12-17T14:11:45;18.07;;;12.20;;
8139;SDS011;4111;50.972;7.072;2022-12-17T14:14:32;15.10;;;12.03;;
8139;SDS011;4111;50.972;7.072;2022-12-17T14:17:01;16.90;;;12.33;;
8139;SDS011;4111;50.972;7.072;2022-12-17T14:19:29;18.13;;;12.50;;
8139;SDS011;4111;50.972;7.072;2022-12-17T14:21:57;19.80;;;12.03;;
8139;SDS011;4111;50.972;7.072;2022-12-17T14:24:24;20.63;;;12.10;;
8139;SDS011;4111;50.972;7.072;2022-12-17T14:26:58;19.27;;;12.40;;
8139;SDS011;4111;50.972;7.072;2022-12-17T14:29:27;17.03;;;11.97;;
8139;SDS011;4111;50.972;7.072;2022-12-17T14:31:55;16.90;;;12.57;;
8139;SDS011;4111;50.972;7.072;2022-12-17T14:34:26;17.40;;;12.30;;
8139;SDS011;4111;50.972;7.072;2022-12-17T14:36:56;18.53;;;11.60;;
8139;SDS011;4111;50.972;7.072;2022-12-17T14:39:26;17.97;;;12.80;;
8139;SDS011;4111;50.972;7.072;2022-12-17T14:41:58;16.13;;;12.47;;
8139;SDS011;4111;50.972;7.072;2022-12-17T14:45:01;16.80;;;12.20;;
8139;SDS011;4111;50.972;7.072;2022-12-17T14:47:32;18.77;;;11.97;;
8139;SDS011;4111;50.972;7.072;2022-12-17T14:50:33;17.53;;;12.43;;
8139;SDS011;4111;50.972;7.072;2022-12-17T14:52:56;16.93;;;12.33;;
8139;SDS011;4111;50.972;7.072;2022-12-17T14:55:25;18.90;;;12.73;;
8139;SDS011;4111;50.972;7.072;2022-12-17T14:58:21;19.87;;;13.27;;
8139;SDS011;4111;50.972;7.072;2022-12-17T15:00:58;15.87;;;12.10;;
8139;SDS011;4111;50.972;7.072;2022-12-17T15:03:32;18.37;;;12.47;;
8139;SDS011;4111;50.972;7.072;2022-12-17T15:06:05;16.63;;;13.20;;
8139;SDS011;4111;50.972;7.072;2022-12-17T15:08:40;21.37;;;13.40;;
8139;SDS011;4111;50.972;7.072;2022-12-17T15:11:12;19.57;;;12.97;;
8139;SDS011;4111;50.972;7.072;2022-12-17T15:13:40;20.57;;;13.80;;
8139;SDS011;4111;50.972;7.072;2022-12-17T15:16:07;17.60;;;12.20;;
8139;SDS011;4111;50.972;7.072;2022-12-17T15:18:34;19.20;;;12.33;;
8139;SDS011;4111;50.972;7.072;2022-12-17T15:21:01;21.17;;;13.37;;
8139;SDS011;4111;50.972;7.072;2022-12-17T15:23:28;20.27;;;13.40;;
8139;SDS011;4111;50.972;7.072;2022-12-17T15:25:56;21.50;;;14.40;;
8139;SDS011;4111;50.972;7.072;2022-12-17T15:28:25;22.73;;;14.70;;
8139;SDS011;4111;50.972;7.072;2022-12-17T15:30:52;23.83;;;14.57;;
8139;SDS011;4111;50.972;7.072;2022-12-17T15:33:18;23.40;;;15.10;;
8139;SDS011;4111;50.972;7.072;2022-12-17T15:35:45;18.27;;;13.77;;
8139;SDS011;4111;50.972;7.072;2022-12-17T15:38:11;19.47;;;13.87;;
8139;SDS011;4111;50.972;7.072;2022-12-17T15:40:37;27.27;;;15.93;;
8139;SDS011;4111;50.972;7.072;2022-12-17T15:43:04;21.50;;;14.47;;
8139;SDS011;4111;50.972;7.072;2022-12-17T15:45:38;23.00;;;15.00;;
8139;SDS011;4111;50.972;7.072;2022-12-17T15:48:09;20.57;;;13.63;;
8139;SDS011;4111;50.972;7.072;2022-12-17T15:50:37;23.90;;;14.73;;
8139;SDS011;4111;50.972;7.072;2022-12-17T15:53:04;17.40;;;13.13;;
8139;SDS011;4111;50.972;7.072;2022-12-17T15:55:31;21.00;;;13.47;;
8139;SDS011;4111;50.972;7.072;2022-12-17T15:57:57;20.43;;;13.70;;
8139;SDS011;4111;50.972;7.072;2022-12-17T16:00:24;18.57;;;12.20;;
8139;SDS011;4111;50.972;7.072;2022-12-17T16:02:50;20.63;;;13.33;;
8139;SDS011;4111;50.972;7.072;2022-12-17T16:05:17;21.40;;;13.07;;
8139;SDS011;4111;50.972;7.072;2022-12-17T16:07:44;19.37;;;13.20;;
8139;SDS011;4111;50.972;7.072;2022-12-17T16:10:11;19.97;;;13.87;;
8139;SDS011;4111;50.972;7.072;2022-12-17T16:12:38;18.63;;;12.67;;
8139;SDS011;4111;50.972;7.072;2022-12-17T16:15:05;17.23;;;11.77;;
8139;SDS011;4111;50.972;7.072;2022-12-17T16:17:33;24.30;;;14.27;;
8139;SDS011;4111;50.972;7.072;2022-12-17T16:19:59;20.83;;;13.77;;
8139;SDS011;4111;50.972;7.072;2022-12-17T16:22:26;20.53;;;14.23;;
8139;SDS011;4111;50.972;7.072;2022-12-17T16:24:53;24.57;;;14.60;;
8139;SDS011;4111;50.972;7.072;2022-12-17T16:27:20;23.30;;;13.67;;
8139;SDS011;4111;50.972;7.072;2022-12-17T16:29:46;25.27;;;14.30;;
8139;SDS011;4111;50.972;7.072;2022-12-17T16:32:13;27.13;;;16.13;;
8139;SDS011;4111;50.972;7.072;2022-12-17T16:34:40;29.97;;;16.80;;
8139;SDS011;4111;50.972;7.072;2022-12-17T16:37:07;22.23;;;14.87;;
8139;SDS011;4111;50.972;7.072;2022-12-17T16:39:34;24.67;;;15.90;;
8139;SDS011;4111;50.972;7.072;2022-12-17T16:42:00;22.87;;;14.53;;
8139;SDS011;4111;50.972;7.072;2022-12-17T16:44:27;24.83;;;14.40;;
8139;SDS011;4111;50.972;7.072;2022-12-17T16:46:53;23.70;;;14.03;;
8139;SDS011;4111;50.972;7.072;2022-12-17T16:49:21;22.87;;;15.40;;
8139;SDS011;4111;50.972;7.072;2022-12-17T16:51:52;25.57;;;15.47;;
8139;SDS011;4111;50.972;7.072;2022-12-17T16:54:23;25.23;;;16.27;;
8139;SDS011;4111;50.972;7.072;2022-12-17T16:56:51;27.60;;;16.87;;
8139;SDS011;4111;50.972;7.072;2022-12-17T16:59:18;32.53;;;19.13;;
8139;SDS011;4111;50.972;7.072;2022-12-17T17:01:45;37.67;;;22.00;;
8139;SDS011;4111;50.972;7.072;2022-12-17T17:04:14;39.33;;;22.43;;
8139;SDS011;4111;50.972;7.072;2022-12-17T17:06:43;36.77;;;19.60;;
8139;SDS011;4111;50.972;7.072;2022-12-17T17:09:11;33.53;;;18.13;;
8139;SDS011;4111;50.972;7.072;2022-12-17T17:11:39;32.47;;;21.07;;
8139;SDS011;4111;50.972;7.072;2022-12-17T17:14:06;30.30;;;19.80;;
8139;SDS011;4111;50.972;7.072;2022-12-17T17:16:33;34.20;;;21.67;;
8139;SDS011;4111;50.972;7.072;2022-12-17T17:19:02;29.00;;;18.57;;
8139;SDS011;4111;50.972;7.072;2022-12-17T17:21:30;24.77;;;17.50;;
8139;SDS011;4111;50.972;7.072;2022-12-17T17:24:11;28.93;;;17.40;;
8139;SDS011;4111;50.972;7.072;2022-12-17T17:26:46;27.00;;;17.43;;
8139;SDS011;4111;50.972;7.072;2022-12-17T17:29:13;28.17;;;16.93;;